Time;durP1;ratioP1;P1;durP2;ratioP2;P2;SDS_P1;SDS_P2;PMS_P1;PMS_P2;Temp;Humidity;BMP_temperature;BMP_pressure;BME280_temperature;BME280_humidity;BME280_pressure;Samples;Min_cycle;Max_cycle;Signal;HPM_P1;HPM_P2
2023/11/22 00:01:19;;;;;;;12.15;7.32;;;;;;;14.14;50.65;102373.13;5094355;28;20058;-58
2023/11/22 00:03:45;;;;;;;12.45;7.25;;;;;;;14.12;50.38;102375.09;5076418;28;20111;-58
2023/11/22 00:06:10;;;;;;;13.48;6.80;;;;;;;14.08;51.30;102376.28;5094409;28;20024;-57
2023/11/22 00:08:35;;;;;;;13.93;7.15;;;;;;;14.05;50.88;102376.50;5076274;28;20410;-57
2023/11/22 00:11:01;;;;;;;14.70;7.63;;;;;;;14.02;51.15;102374.03;5059402;28;20020;-58
2023/11/22 00:13:26;;;;;;;13.18;7.45;;;;;;;14.00;50.53;102386.78;5093201;28;20032;-59
2023/11/22 00:15:52;;;;;;;12.40;6.55;;;;;;;13.95;51.39;102383.56;5093558;28;20555;-58
2023/11/22 00:18:17;;;;;;;13.82;7.55;;;;;;;13.91;50.19;102380.22;5058807;28;20107;-58
2023/11/22 00:20:42;;;;;;;12.13;6.82;;;;;;;13.91;50.81;102382.03;5075512;28;20510;-58
2023/11/22 00:23:08;;;;;;;11.55;6.60;;;;;;;13.89;50.28;102381.31;5093407;28;20081;-58
2023/11/22 00:25:33;;;;;;;11.98;6.45;;;;;;;13.86;51.59;102381.53;5075327;28;20031;-58
2023/11/22 00:27:59;;;;;;;13.07;6.68;;;;;;;13.82;50.92;102385.41;5093386;28;20028;-59
2023/11/22 00:30:24;;;;;;;14.55;7.68;;;;;;;13.78;51.14;102373.16;5075440;28;20048;-58
2023/11/22 00:32:49;;;;;;;14.80;5.70;;;;;;;13.75;50.47;102373.38;5093454;28;20031;-58
2023/11/22 00:35:15;;;;;;;15.88;7.63;;;;;;;13.69;51.17;102365.75;5076057;28;20034;-58
2023/11/22 00:37:40;;;;;;;11.80;6.78;;;;;;;13.69;51.02;102371.13;5075418;28;20032;-58
2023/11/22 00:40:15;;;;;;;12.68;6.88;;;;;;;13.66;51.47;102372.22;5075380;28;20035;-58
2023/11/22 00:42:42;;;;;;;13.70;6.72;;;;;;;13.64;50.59;102379.53;5093369;28;20032;-57
2023/11/22 00:45:09;;;;;;;13.80;7.20;;;;;;;13.61;50.42;102373.50;5075162;28;20028;-58
2023/11/22 00:47:34;;;;;;;11.80;6.53;;;;;;;13.57;49.99;102380.09;5058369;28;20028;-58
2023/11/22 00:50:01;;;;;;;11.32;5.88;;;;;;;13.55;51.10;102382.03;5074926;28;20081;-58
2023/11/22 00:52:26;;;;;;;15.35;6.95;;;;;;;13.53;50.97;102378.59;5058322;28;20226;-58
2023/11/22 00:54:51;;;;;;;11.85;5.97;;;;;;;13.46;50.94;102380.84;5087887;28;20504;-58
2023/11/22 00:57:17;;;;;;;12.82;6.40;;;;;;;13.46;51.51;102393.44;5054748;28;20033;-58
2023/11/22 00:59:42;;;;;;;12.48;6.32;;;;;;;13.40;51.26;102400.13;5072548;28;20044;-58
2023/11/22 01:02:08;;;;;;;14.20;7.85;;;;;;;13.36;51.41;102404.88;5072713;28;20029;-58
2023/11/22 01:04:35;;;;;;;14.45;6.47;;;;;;;13.32;50.96;102405.19;5063536;28;20028;-59
2023/11/22 01:07:01;;;;;;;11.90;7.03;;;;;;;13.29;50.22;102400.88;5075259;28;20036;-58
2023/11/22 01:09:28;;;;;;;12.90;6.63;;;;;;;13.26;51.20;102403.78;5056703;28;20093;-58
2023/11/22 01:11:54;;;;;;;16.85;7.05;;;;;;;13.20;51.33;102398.00;5092640;28;20032;-57
2023/11/22 01:14:19;;;;;;;12.02;7.25;;;;;;;13.17;50.45;102409.84;5074771;28;20081;-58
2023/11/22 01:16:44;;;;;;;13.63;6.82;;;;;;;13.16;50.65;102413.50;5091339;28;20081;-58
2023/11/22 01:19:10;;;;;;;16.05;7.15;;;;;;;13.13;51.57;102413.72;5054478;28;20040;-58
2023/11/22 01:21:35;;;;;;;11.65;6.13;;;;;;;13.09;51.37;102412.19;5078993;28;20131;-58
2023/11/22 01:24:01;;;;;;;13.73;7.53;;;;;;;13.09;51.43;102422.94;5092583;28;20029;-58
2023/11/22 01:26:26;;;;;;;11.73;6.55;;;;;;;13.08;50.69;102434.69;5074999;28;20102;-57
2023/11/22 01:28:52;;;;;;;11.48;6.25;;;;;;;13.06;51.66;102439.28;5092663;28;20483;-58
2023/11/22 01:31:20;;;;;;;16.25;6.60;;;;;;;13.05;50.46;102442.94;5092775;28;20097;-59
2023/11/22 01:33:46;;;;;;;13.13;6.57;;;;;;;13.03;51.26;102439.50;5075644;28;20024;-58
2023/11/22 01:36:12;;;;;;;14.55;7.00;;;;;;;13.01;50.49;102443.25;5093343;28;20036;-58
2023/11/22 01:38:39;;;;;;;17.33;7.57;;;;;;;12.98;50.27;102447.00;5059157;28;20576;-58
2023/11/22 01:41:04;;;;;;;11.88;6.53;;;;;;;12.96;51.20;102445.38;5093162;28;20056;-58
2023/11/22 01:43:31;;;;;;;16.80;7.85;;;;;;;12.96;50.40;102448.06;5092904;28;20518;-58
2023/11/22 01:45:56;;;;;;;11.60;7.13;;;;;;;12.95;50.74;102457.13;5092879;28;20543;-58
2023/11/22 01:48:22;;;;;;;18.90;7.15;;;;;;;12.94;50.58;102461.63;5092900;28;20059;-58
2023/11/22 01:50:47;;;;;;;15.52;7.70;;;;;;;12.90;50.61;102454.72;5074533;28;20483;-59
2023/11/22 01:53:13;;;;;;;15.98;7.45;;;;;;;12.89;50.85;102468.28;5074277;28;20048;-58
2023/11/22 01:55:39;;;;;;;14.30;7.18;;;;;;;12.89;50.97;102474.53;5093178;28;20059;-58
2023/11/22 01:58:05;;;;;;;12.98;7.18;;;;;;;12.91;51.15;102487.88;5095020;28;20036;-58
2023/11/22 02:00:35;;;;;;;14.75;7.45;;;;;;;12.87;51.09;102489.06;5078304;28;20403;-58
2023/11/22 02:03:00;;;;;;;15.10;7.50;;;;;;;12.88;51.29;102491.63;5093004;28;20033;-58
2023/11/22 02:05:25;;;;;;;13.73;7.43;;;;;;;12.86;50.66;102474.75;5057871;28;20095;-58
2023/11/22 02:07:52;;;;;;;15.32;6.78;;;;;;;12.86;50.19;102480.13;5075751;28;20123;-59
2023/11/22 02:10:17;;;;;;;14.32;7.38;;;;;;;12.85;50.41;102495.41;5058134;28;20036;-58
2023/11/22 02:12:43;;;;;;;15.15;7.45;;;;;;;12.80;49.93;102492.16;5075848;28;20029;-58
2023/11/22 02:15:09;;;;;;;14.65;7.43;;;;;;;12.79;51.52;102493.13;5058236;28;20499;-59
2023/11/22 02:17:34;;;;;;;13.57;7.50;;;;;;;12.79;50.16;102494.94;5058784;28;20115;-58
2023/11/22 02:19:59;;;;;;;13.77;7.07;;;;;;;12.79;50.13;102501.19;5043144;28;20404;-58
2023/11/22 02:22:25;;;;;;;15.88;8.40;;;;;;;12.77;50.27;102511.19;5060579;28;20040;-58
2023/11/22 02:24:50;;;;;;;14.93;8.35;;;;;;;12.78;50.51;102509.38;5077918;28;20032;-58
2023/11/22 02:27:16;;;;;;;14.10;7.68;;;;;;;12.78;50.71;102503.97;5076390;28;20048;-58
2023/11/22 02:29:41;;;;;;;16.48;8.40;;;;;;;12.79;50.42;102511.06;5076399;28;20459;-57
2023/11/22 02:32:06;;;;;;;19.63;8.32;;;;;;;12.80;51.99;102499.34;5058884;28;20521;-58
2023/11/22 02:34:32;;;;;;;16.13;8.07;;;;;;;12.82;50.59;102500.09;5075671;28;20102;-58
2023/11/22 02:36:58;;;;;;;15.68;7.57;;;;;;;12.85;51.73;102499.91;5075119;28;20037;-58
2023/11/22 02:39:30;;;;;;;17.23;8.38;;;;;;;12.85;51.51;102499.91;5063507;28;20084;-58
2023/11/22 02:41:56;;;;;;;19.15;8.52;;;;;;;12.84;51.84;102503.59;5057055;28;20024;-58
2023/11/22 02:44:21;;;;;;;14.48;7.88;;;;;;;12.82;51.25;102500.09;5057097;28;20029;-58
2023/11/22 02:46:46;;;;;;;17.52;8.13;;;;;;;12.82;51.98;102500.09;5040411;28;20384;-58
2023/11/22 02:49:12;;;;;;;19.60;8.27;;;;;;;12.82;51.15;102500.09;5077029;28;20553;-58
2023/11/22 02:51:37;;;;;;;15.85;8.18;;;;;;;12.83;50.65;102502.72;5077598;28;20040;-58
2023/11/22 02:54:04;;;;;;;20.33;8.65;;;;;;;12.84;51.79;102506.28;5059666;28;20435;-58
2023/11/22 02:56:30;;;;;;;14.65;8.05;;;;;;;12.84;50.54;102503.59;5076161;28;20025;-58
2023/11/22 02:58:56;;;;;;;19.20;9.48;;;;;;;12.88;51.71;102510.47;5073611;28;20041;-58
2023/11/22 03:01:21;;;;;;;16.05;8.00;;;;;;;12.86;50.77;102517.78;5074595;28;20036;-58
2023/11/22 03:03:46;;;;;;;18.40;8.65;;;;;;;12.85;51.91;102519.59;5074264;28;20037;-58
2023/11/22 03:06:11;;;;;;;19.85;9.55;;;;;;;12.86;51.13;102523.16;5056528;28;20043;-59
2023/11/22 03:08:37;;;;;;;18.35;9.55;;;;;;;12.86;50.92;102523.16;5073483;28;20033;-58
2023/11/22 03:11:02;;;;;;;17.90;8.48;;;;;;;12.84;51.47;102514.34;5074314;28;20037;-58
2023/11/22 03:13:28;;;;;;;21.13;10.02;;;;;;;12.85;51.13;102522.28;5056257;28;20556;-58
2023/11/22 03:15:53;;;;;;;17.98;8.10;;;;;;;12.88;50.58;102526.59;5074425;28;20036;-58
2023/11/22 03:18:18;;;;;;;16.30;8.50;;;;;;;12.88;50.81;102523.91;5074071;28;20139;-58
2023/11/22 03:20:44;;;;;;;15.18;7.90;;;;;;;12.90;50.43;102519.28;5074134;28;20036;-58
2023/11/22 03:23:10;;;;;;;20.85;9.50;;;;;;;12.89;50.56;102520.25;5056537;28;20036;-58
2023/11/22 03:25:36;;;;;;;17.77;9.73;;;;;;;12.91;51.21;102514.78;5074146;28;20388;-58
2023/11/22 03:28:01;;;;;;;18.92;8.57;;;;;;;12.93;50.37;102520.91;5056160;28;20024;-58
2023/11/22 03:30:26;;;;;;;18.70;9.20;;;;;;;12.94;52.06;102512.75;5056174;28;20032;-57
2023/11/22 03:32:52;;;;;;;19.42;9.57;;;;;;;12.94;51.92;102515.44;5056000;28;20057;-58
2023/11/22 03:35:19;;;;;;;15.77;9.15;;;;;;;12.92;51.29;102517.38;5073924;28;20469;-58
2023/11/22 03:37:45;;;;;;;24.15;10.57;;;;;;;12.94;51.75;102526.19;5073711;28;20065;-58
2023/11/22 03:40:10;;;;;;;18.98;10.20;;;;;;;12.93;51.45;102529.84;5056346;28;20116;-58
2023/11/22 03:42:37;;;;;;;28.52;10.82;;;;;;;12.93;51.49;102532.53;5074942;28;20109;-57
2023/11/22 03:45:03;;;;;;;24.52;10.80;;;;;;;12.92;50.71;102532.66;5074922;28;20039;-58
2023/11/22 03:47:28;;;;;;;30.90;11.05;;;;;;;12.91;50.53;102547.91;5055681;28;20031;-58
2023/11/22 03:49:54;;;;;;;21.05;10.63;;;;;;;12.90;50.49;102542.66;5055667;28;20116;-58
2023/11/22 03:52:19;;;;;;;24.17;10.85;;;;;;;12.87;50.92;102549.06;5073330;28;20032;-59
2023/11/22 03:54:44;;;;;;;23.23;10.70;;;;;;;12.88;51.66;102545.44;5073490;28;20127;-58
2023/11/22 03:57:10;;;;;;;25.48;11.90;;;;;;;12.88;51.29;102545.44;5055801;28;20135;-58
2023/11/22 03:59:35;;;;;;;28.70;11.00;;;;;;;12.89;51.74;102549.84;5073278;28;20112;-58
2023/11/22 04:02:00;;;;;;;27.13;10.93;;;;;;;12.89;51.84;102555.22;5038740;28;20082;-58
2023/11/22 04:04:26;;;;;;;30.30;11.70;;;;;;;12.88;50.55;102561.56;5073373;28;20046;-58
2023/11/22 04:06:52;;;;;;;29.10;12.65;;;;;;;12.89;51.73;102567.81;5073080;28;20048;-58
2023/11/22 04:09:20;;;;;;;26.27;12.60;;;;;;;12.88;50.30;102585.75;5055292;28;20044;-58
2023/11/22 04:11:46;;;;;;;26.80;12.40;;;;;;;12.90;50.38;102591.91;5072788;28;20534;-58
2023/11/22 04:14:12;;;;;;;28.00;12.40;;;;;;;12.87;51.28;102597.47;5055326;28;20494;-58
2023/11/22 04:16:38;;;;;;;31.27;14.20;;;;;;;12.88;51.76;102609.97;5073124;28;20032;-59
2023/11/22 04:19:03;;;;;;;26.98;12.27;;;;;;;12.88;52.20;102609.97;5054737;28;20027;-58
2023/11/22 04:21:29;;;;;;;30.00;11.68;;;;;;;12.85;51.01;102608.34;5055023;28;20024;-58
2023/11/22 04:23:54;;;;;;;33.17;13.93;;;;;;;12.88;50.42;102612.66;5072961;28;20031;-58
2023/11/22 04:26:20;;;;;;;32.63;12.68;;;;;;;12.88;50.63;102623.41;5038317;28;20468;-59
2023/11/22 04:28:45;;;;;;;28.00;13.10;;;;;;;12.87;51.12;102620.84;5073257;28;20017;-58
2023/11/22 04:31:11;;;;;;;31.80;13.10;;;;;;;12.87;51.86;102627.06;5072857;28;20036;-58
2023/11/22 04:33:37;;;;;;;32.33;13.10;;;;;;;12.88;50.63;102626.09;5054941;28;20476;-58
2023/11/22 04:36:03;;;;;;;28.30;12.27;;;;;;;12.90;50.71;102631.41;5055367;28;20017;-58
2023/11/22 04:38:28;;;;;;;30.58;13.00;;;;;;;12.89;50.96;102645.81;5055014;28;20027;-59
2023/11/22 04:40:54;;;;;;;36.83;13.23;;;;;;;12.87;51.58;102645.88;5072806;28;20020;-58
2023/11/22 04:43:19;;;;;;;33.55;13.85;;;;;;;12.82;51.52;102653.41;5038130;28;20028;-58
2023/11/22 04:45:45;;;;;;;26.88;11.35;;;;;;;12.84;51.25;102656.88;5073043;28;20020;-58
2023/11/22 04:48:10;;;;;;;30.00;11.80;;;;;;;12.84;51.83;102656.88;5072429;28;20056;-58
2023/11/22 04:50:35;;;;;;;28.13;12.77;;;;;;;12.83;51.54;102658.69;5072618;28;20056;-57
2023/11/22 04:53:01;;;;;;;24.70;11.82;;;;;;;12.81;50.61;102659.75;5072486;28;20103;-59
2023/11/22 04:55:28;;;;;;;29.13;13.20;;;;;;;12.83;50.77;102655.13;5055078;28;20032;-58
2023/11/22 04:57:53;;;;;;;32.45;13.20;;;;;;;12.81;51.74;102644.47;5072585;28;20020;-58
2023/11/22 05:00:19;;;;;;;30.33;13.50;;;;;;;12.80;50.88;102641.88;5072696;28;20039;-58
2023/11/22 05:02:44;;;;;;;29.58;13.23;;;;;;;12.82;50.74;102646.19;5054579;28;20028;-58
2023/11/22 05:05:12;;;;;;;29.17;13.27;;;;;;;12.78;50.88;102630.38;5037929;28;20020;-58
2023/11/22 05:07:38;;;;;;;34.17;14.15;;;;;;;12.81;51.39;102649.84;5072537;28;20025;-58
2023/11/22 05:10:05;;;;;;;33.92;13.00;;;;;;;12.82;51.47;102645.31;5037860;28;20026;-58
2023/11/22 05:12:31;;;;;;;28.88;14.77;;;;;;;12.81;50.32;102643.63;5036800;28;20040;-58
2023/11/22 05:14:56;;;;;;;32.30;14.82;;;;;;;12.84;50.53;102656.88;5055033;28;20036;-57
2023/11/22 05:17:21;;;;;;;36.03;13.05;;;;;;;12.84;50.49;102648.81;5072275;28;20491;-58
2023/11/22 05:19:47;;;;;;;36.40;15.45;;;;;;;12.80;51.81;102652.63;5092788;28;20032;-58
2023/11/22 05:22:12;;;;;;;39.97;15.52;;;;;;;12.84;50.59;102659.56;5092625;28;20115;-58
2023/11/22 05:24:40;;;;;;;31.88;14.25;;;;;;;12.82;51.79;102656.09;5074333;28;20052;-59
2023/11/22 05:27:07;;;;;;;33.65;13.45;;;;;;;12.83;51.80;102658.69;5092533;28;20141;-58
2023/11/22 05:29:32;;;;;;;29.17;13.63;;;;;;;12.80;51.36;102668.78;5092409;28;20479;-58
2023/11/22 05:31:57;;;;;;;35.95;13.57;;;;;;;12.80;51.77;102674.16;5077291;28;20032;-58
2023/11/22 05:34:23;;;;;;;29.85;13.77;;;;;;;12.78;51.28;102674.25;5096556;28;20441;-58
2023/11/22 05:36:48;;;;;;;34.17;14.38;;;;;;;12.80;50.39;102668.78;5078317;28;20115;-58
2023/11/22 05:39:14;;;;;;;32.78;14.13;;;;;;;12.80;51.56;102671.47;5096274;28;20473;-58
2023/11/22 05:41:39;;;;;;;33.58;14.23;;;;;;;12.76;50.33;102661.84;5096118;28;20035;-58
2023/11/22 05:44:04;;;;;;;35.08;15.13;;;;;;;12.78;51.43;102665.31;5078059;28;20154;-59
2023/11/22 05:46:30;;;;;;;34.60;14.70;;;;;;;12.76;51.54;102672.59;5061569;28;20024;-58
2023/11/22 05:48:55;;;;;;;33.10;14.38;;;;;;;12.76;51.21;102672.59;5096600;28;20028;-58
2023/11/22 05:51:21;;;;;;;39.40;15.88;;;;;;;12.75;50.42;102677.16;5062699;28;20032;-58
2023/11/22 05:53:46;;;;;;;40.58;16.20;;;;;;;12.74;51.09;102675.41;5078442;28;20515;-58
2023/11/22 05:56:12;;;;;;;38.10;15.00;;;;;;;12.77;51.18;102666.28;5078214;28;20514;-58
2023/11/22 05:58:38;;;;;;;33.67;15.23;;;;;;;12.77;51.67;102658.22;5096049;28;20081;-58
2023/11/22 06:01:11;;;;;;;33.13;14.13;;;;;;;12.78;51.19;102659.94;5078219;28;20075;-58
2023/11/22 06:03:38;;;;;;;34.38;14.18;;;;;;;12.80;50.75;102658.03;5095936;28;20032;-58
2023/11/22 06:06:04;;;;;;;32.38;14.70;;;;;;;12.78;51.22;102659.94;5078228;28;20039;-58
2023/11/22 06:08:30;;;;;;;39.53;15.45;;;;;;;12.79;51.55;102651.78;5078266;28;20024;-58
2023/11/22 06:10:57;;;;;;;33.33;15.05;;;;;;;12.79;51.04;102661.66;5096136;28;20055;-58
2023/11/22 06:13:23;;;;;;;41.75;15.77;;;;;;;12.78;51.41;102665.31;5097755;28;20028;-58
2023/11/22 06:15:48;;;;;;;37.83;16.58;;;;;;;12.77;50.06;102675.22;5080266;28;20040;-57
2023/11/22 06:18:15;;;;;;;34.30;15.18;;;;;;;12.79;50.75;102680.47;5098441;28;20062;-57
2023/11/22 06:20:41;;;;;;;35.38;15.05;;;;;;;12.79;51.66;102685.84;5096916;28;20036;-58
2023/11/22 06:23:06;;;;;;;41.88;16.63;;;;;;;12.73;51.37;102679.03;5078253;28;20487;-58
2023/11/22 06:25:32;;;;;;;34.85;14.05;;;;;;;12.77;51.30;102691.34;5096528;28;20543;-57
2023/11/22 06:27:57;;;;;;;37.28;15.48;;;;;;;12.75;51.08;102697.78;5060989;28;20047;-58
2023/11/22 06:30:24;;;;;;;34.45;15.50;;;;;;;12.77;50.88;102706.63;5060776;28;20044;-58
2023/11/22 06:32:50;;;;;;;37.72;16.10;;;;;;;12.78;51.44;102716.41;5095531;28;20416;-58
2023/11/22 06:35:17;;;;;;;37.50;14.63;;;;;;;12.77;50.20;102707.47;5077205;28;20032;-58
2023/11/22 06:37:43;;;;;;;34.83;15.80;;;;;;;12.77;51.52;102701.22;5095281;28;20032;-58
2023/11/22 06:40:09;;;;;;;32.78;15.20;;;;;;;12.77;50.74;102704.78;5077139;28;20051;-58
2023/11/22 06:42:34;;;;;;;32.10;14.95;;;;;;;12.76;51.32;102697.69;5094742;28;20523;-58
2023/11/22 06:45:00;;;;;;;35.17;14.75;;;;;;;12.77;50.44;102698.53;5095334;28;20036;-57
2023/11/22 06:47:27;;;;;;;38.47;16.02;;;;;;;12.76;51.07;102689.59;5095432;28;20036;-58
2023/11/22 06:49:53;;;;;;;32.25;14.85;;;;;;;12.80;50.16;102692.97;5095161;28;20058;-57
2023/11/22 06:52:18;;;;;;;35.95;15.07;;;;;;;12.81;50.58;102700.94;5077038;28;20056;-58
2023/11/22 06:54:44;;;;;;;37.20;14.88;;;;;;;12.82;51.34;102696.41;5094792;28;20039;-58
2023/11/22 06:57:09;;;;;;;31.58;12.93;;;;;;;12.85;50.68;102698.91;5094904;28;20491;-58
2023/11/22 06:59:35;;;;;;;34.13;14.93;;;;;;;12.82;51.42;102691.03;5056631;28;20525;-58
2023/11/22 07:02:00;;;;;;;38.78;16.55;;;;;;;12.84;51.13;102699.91;5073567;28;20050;-58
2023/11/22 07:04:25;;;;;;;38.13;14.88;;;;;;;12.86;50.20;102711.41;5079171;28;20503;-59
2023/11/22 07:06:51;;;;;;;37.63;14.57;;;;;;;12.88;50.56;102724.75;5080330;28;20031;-58
2023/11/22 07:09:16;;;;;;;35.08;14.75;;;;;;;12.88;50.40;102730.13;5115002;28;20042;-58
2023/11/22 07:11:43;;;;;;;34.20;14.65;;;;;;;12.88;50.85;102744.44;5115080;28;20028;-58
2023/11/22 07:14:09;;;;;;;29.85;13.07;;;;;;;12.85;50.45;102744.63;5096758;28;20043;-58
2023/11/22 07:16:35;;;;;;;30.50;13.15;;;;;;;12.87;51.46;102756.16;5114929;28;20039;-58
2023/11/22 07:19:02;;;;;;;31.48;13.02;;;;;;;12.85;50.06;102750.88;5114512;28;20058;-58
2023/11/22 07:21:31;;;;;;;27.55;13.27;;;;;;;12.88;51.44;102765.97;5115216;28;20036;-58
2023/11/22 07:23:56;;;;;;;29.50;11.75;;;;;;;12.89;51.39;102759.63;5079010;28;20031;-58
2023/11/22 07:26:22;;;;;;;31.30;14.93;;;;;;;12.90;50.07;102755.97;5079927;28;20038;-59
2023/11/22 07:28:47;;;;;;;32.15;14.20;;;;;;;12.93;50.54;102741.47;5116434;28;20546;-58
2023/11/22 07:31:12;;;;;;;24.73;11.68;;;;;;;12.95;50.45;102736.88;5098069;28;20028;-58
2023/11/22 07:33:38;;;;;;;29.20;14.05;;;;;;;12.97;50.96;102732.25;5079638;28;20108;-58
2023/11/22 07:36:05;;;;;;;31.70;13.02;;;;;;;12.99;50.40;102723.09;5114761;28;20032;-59
2023/11/22 07:38:31;;;;;;;27.38;12.13;;;;;;;12.98;49.97;102731.28;5114234;28;20036;-58
2023/11/22 07:40:57;;;;;;;32.47;13.30;;;;;;;12.99;50.95;102733.00;5114298;28;20035;-58
2023/11/22 07:43:22;;;;;;;35.47;13.60;;;;;;;13.01;49.93;102739.16;5114312;28;20034;-58
2023/11/22 07:45:48;;;;;;;28.55;12.68;;;;;;;13.04;50.08;102734.44;5114505;28;20410;-58
2023/11/22 07:48:14;;;;;;;37.65;13.45;;;;;;;13.05;49.75;102733.47;5096221;28;20422;-58
2023/11/22 07:50:39;;;;;;;32.00;12.77;;;;;;;13.09;50.49;102735.03;5079301;28;20402;-58
2023/11/22 07:53:05;;;;;;;31.67;13.35;;;;;;;13.07;50.27;102731.59;5095247;28;20035;-58
2023/11/22 07:55:31;;;;;;;29.85;13.15;;;;;;;13.08;50.87;102733.31;5114505;28;20406;-58
2023/11/22 07:57:56;;;;;;;26.20;13.32;;;;;;;13.04;50.24;102725.50;5098210;28;20088;-57
2023/11/22 08:00:22;;;;;;;32.17;14.70;;;;;;;13.08;50.93;102722.56;5119737;28;20035;-58
2023/11/22 08:02:49;;;;;;;37.83;15.15;;;;;;;13.09;49.64;102708.13;5116693;28;20034;-58
2023/11/22 08:05:15;;;;;;;33.25;14.68;;;;;;;13.13;50.10;102711.50;5114245;28;20023;-58
2023/11/22 08:07:41;;;;;;;40.60;16.60;;;;;;;13.16;49.69;102713.97;5114180;28;20093;-57
2023/11/22 08:10:19;;;;;;;36.33;17.73;;;;;;;13.16;50.66;102725.63;5095795;28;20043;-59
2023/11/22 08:12:46;;;;;;;45.17;16.92;;;;;;;13.16;50.42;102724.75;5114176;28;20039;-58
2023/11/22 08:15:13;;;;;;;42.20;17.95;;;;;;;13.16;50.63;102735.50;5095817;28;20096;-58
2023/11/22 08:17:39;;;;;;;40.65;16.00;;;;;;;13.18;49.51;102745.22;5114007;28;20088;-58
2023/11/22 08:20:05;;;;;;;48.00;17.30;;;;;;;13.19;49.54;102752.34;5109894;28;20039;-57
2023/11/22 08:22:35;;;;;;;43.55;17.40;;;;;;;13.22;49.78;102752.13;5093296;28;20467;-58
2023/11/22 08:25:03;;;;;;;44.00;17.60;;;;;;;13.23;50.20;102753.00;5093394;28;20047;-58
2023/11/22 08:27:29;;;;;;;39.85;17.67;;;;;;;13.26;49.18;102760.88;5075062;28;20032;-58
2023/11/22 08:29:54;;;;;;;45.97;17.17;;;;;;;13.28;49.58;102762.50;5093240;28;20032;-58
2023/11/22 08:32:23;;;;;;;39.72;18.25;;;;;;;13.33;49.39;102775.66;5075047;28;20533;-58
2023/11/22 08:34:51;;;;;;;38.10;15.60;;;;;;;13.40;49.42;102782.34;5093169;28;20042;-58
2023/11/22 08:37:17;;;;;;;41.28;16.83;;;;;;;13.42;49.32;102785.84;5075119;28;20027;-58
2023/11/22 08:39:43;;;;;;;34.95;16.10;;;;;;;13.38;49.36;102785.16;5092759;28;20024;-58
2023/11/22 08:42:09;;;;;;;31.25;13.32;;;;;;;13.36;49.88;102792.47;5058338;28;20380;-58
2023/11/22 08:44:36;;;;;;;34.03;15.48;;;;;;;13.47;49.39;102818.69;5092912;28;20032;-58
2023/11/22 08:47:02;;;;;;;36.17;15.05;;;;;;;13.50;49.66;102821.19;5075036;28;20535;-58
2023/11/22 08:49:28;;;;;;;40.95;15.35;;;;;;;13.51;49.29;102825.63;5093182;28;20495;-57
2023/11/22 08:51:53;;;;;;;37.00;15.10;;;;;;;13.55;50.08;102818.19;5075221;28;20032;-58
2023/11/22 08:54:18;;;;;;;31.95;14.55;;;;;;;13.58;49.12;102824.25;5092678;28;20533;-58
2023/11/22 08:56:46;;;;;;;37.20;14.43;;;;;;;13.62;48.49;102795.31;5092881;28;20580;-58
2023/11/22 08:59:12;;;;;;;34.15;14.40;;;;;;;13.70;49.72;102791.16;5092791;28;20078;-58
2023/11/22 09:01:37;;;;;;;32.58;13.80;;;;;;;13.83;48.15;102789.34;5092776;28;20446;-58
2023/11/22 09:04:03;;;;;;;28.77;13.40;;;;;;;13.96;48.66;102792.09;5092840;28;20036;-59
2023/11/22 09:06:29;;;;;;;35.13;14.50;;;;;;;14.09;48.97;102805.63;5094639;28;20043;-58
2023/11/22 09:08:54;;;;;;;33.72;12.88;;;;;;;14.23;49.17;102813.63;5096918;28;20024;-58
2023/11/22 09:11:22;;;;;;;31.23;13.55;;;;;;;14.34;49.43;102793.09;5096912;28;20073;-58
2023/11/22 09:13:47;;;;;;;26.77;13.18;;;;;;;14.39;49.10;102807.13;5078831;28;20039;-58
2023/11/22 09:16:13;;;;;;;32.05;13.20;;;;;;;14.63;48.18;102804.53;5096875;28;20028;-58
2023/11/22 09:18:38;;;;;;;31.00;12.77;;;;;;;14.92;48.02;102807.91;5096629;28;20031;-58
2023/11/22 09:21:04;;;;;;;33.83;14.02;;;;;;;15.18;47.67;102801.53;5096813;28;20119;-58
2023/11/22 09:23:30;;;;;;;35.28;14.95;;;;;;;15.42;47.55;102799.72;5096332;28;20061;-59
2023/11/22 09:25:55;;;;;;;33.95;13.75;;;;;;;15.67;47.41;102796.97;5078565;28;20054;-59
2023/11/22 09:28:21;;;;;;;27.02;12.68;;;;;;;15.90;46.97;102794.38;5096653;28;20020;-59
2023/11/22 09:30:48;;;;;;;29.48;13.10;;;;;;;16.18;46.57;102808.41;5061657;28;20050;-59
2023/11/22 09:33:14;;;;;;;32.42;12.30;;;;;;;16.05;47.69;102809.47;5078617;28;20471;-58
2023/11/22 09:35:43;;;;;;;25.58;11.77;;;;;;;15.88;47.19;102799.06;5096376;28;20028;-58
2023/11/22 09:38:11;;;;;;;27.58;13.30;;;;;;;15.73;47.18;102799.22;5096587;28;20019;-58
2023/11/22 09:40:45;;;;;;;21.50;10.35;;;;;;;15.79;47.77;102808.72;5096613;28;20115;-58
2023/11/22 09:43:10;;;;;;;26.83;11.68;;;;;;;15.78;46.37;102806.97;5078275;28;20107;-58
2023/11/22 09:45:38;;;;;;;21.15;10.35;;;;;;;15.73;47.03;102804.63;5078078;28;20059;-58
2023/11/22 09:48:12;;;;;;;23.02;9.73;;;;;;;15.74;46.82;102810.91;5078604;28;20131;-57
2023/11/22 09:50:56;;;;;;;22.80;11.00;;;;;;;15.79;46.64;102810.56;5096176;28;20085;-58
2023/11/22 09:53:36;;;;;;;18.80;10.13;;;;;;;16.03;45.33;102816.81;5077900;28;20522;-58
2023/11/22 09:56:03;;;;;;;22.52;10.73;;;;;;;16.31;46.03;102816.44;5078577;28;20412;-58
2023/11/22 09:58:36;;;;;;;21.33;10.15;;;;;;;16.35;45.79;102822.47;5077816;28;20025;-58
2023/11/22 10:01:03;;;;;;;20.30;11.68;;;;;;;16.18;45.71;102826.47;5095827;28;20043;-58
2023/11/22 10:03:29;;;;;;;20.73;10.57;;;;;;;16.09;46.56;102822.63;5077982;28;20103;-58
2023/11/22 10:05:57;;;;;;;22.05;9.55;;;;;;;16.03;46.84;102817.69;5078790;28;20107;-58
2023/11/22 10:08:23;;;;;;;19.27;9.45;;;;;;;16.09;45.91;102813.66;5080413;28;20024;-57
2023/11/22 10:10:51;;;;;;;19.48;9.35;;;;;;;16.45;46.04;102805.41;5062389;28;20048;-58
2023/11/22 10:13:20;;;;;;;22.88;10.73;;;;;;;16.67;45.99;102805.50;5078041;28;20044;-58
2023/11/22 10:15:46;;;;;;;19.95;10.05;;;;;;;16.71;45.86;102804.28;5077914;28;20091;-58
2023/11/22 10:18:12;;;;;;;20.20;9.68;;;;;;;16.67;46.21;102800.09;5076901;28;20032;-58
2023/11/22 10:20:39;;;;;;;18.65;9.80;;;;;;;16.73;46.10;102807.72;5077798;28;20093;-58
2023/11/22 10:23:12;;;;;;;19.55;10.63;;;;;;;16.78;45.61;102815.47;5095649;28;20028;-59
2023/11/22 10:25:47;;;;;;;26.67;10.73;;;;;;;16.88;45.83;102811.94;5077365;28;20036;-59
2023/11/22 10:28:13;;;;;;;23.45;11.38;;;;;;;16.84;45.29;102815.00;5095440;28;20028;-58
2023/11/22 10:30:40;;;;;;;22.25;10.55;;;;;;;16.72;44.99;102805.16;5095506;28;20490;-58
2023/11/22 10:33:06;;;;;;;19.73;9.88;;;;;;;16.84;44.87;102805.03;5095368;28;20492;-58
2023/11/22 10:35:31;;;;;;;22.35;10.65;;;;;;;17.09;44.85;102803.06;5077430;28;20032;-58
2023/11/22 10:37:59;;;;;;;19.95;10.50;;;;;;;17.33;44.50;102804.69;5077086;28;20040;-58
2023/11/22 10:40:24;;;;;;;18.67;10.65;;;;;;;17.43;44.20;102800.25;5077099;28;20059;-58
2023/11/22 10:42:52;;;;;;;18.95;10.55;;;;;;;17.43;44.97;102802.06;5077073;28;20487;-58
2023/11/22 10:45:17;;;;;;;22.35;10.50;;;;;;;17.50;44.15;102797.03;5095114;28;20503;-58
2023/11/22 10:47:43;;;;;;;19.25;10.15;;;;;;;17.33;44.75;102788.44;5095133;28;20069;-58
2023/11/22 10:50:10;;;;;;;19.90;9.90;;;;;;;17.30;44.48;102791.41;5076907;28;20081;-59
2023/11/22 10:52:39;;;;;;;22.27;11.82;;;;;;;17.42;44.67;102784.94;5077040;28;20040;-58
2023/11/22 10:55:06;;;;;;;22.25;9.93;;;;;;;17.60;44.29;102785.34;5077261;28;20032;-62
2023/11/22 10:57:33;;;;;;;22.70;9.95;;;;;;;17.81;43.47;102777.28;5077009;28;20032;-63
2023/11/22 11:00:07;;;;;;;24.20;10.90;;;;;;;17.88;44.04;102787.47;5076499;28;20028;-63
2023/11/22 11:02:36;;;;;;;17.05;9.13;;;;;;;17.94;43.51;102784.25;5061078;28;20039;-62
2023/11/22 11:05:12;;;;;;;20.75;10.38;;;;;;;17.96;43.99;102784.97;5076159;28;20044;-63
2023/11/22 11:07:41;;;;;;;21.63;10.07;;;;;;;17.97;43.91;102802.97;5077809;28;20024;-63